createdAt,value
2018-07-20T00:00:49.514Z,14.57
2018-07-20T00:01:49.444Z,14.47
2018-07-20T00:02:49.364Z,14.39
2018-07-20T00:03:49.298Z,14.36
2018-07-20T00:04:49.218Z,14.47
2018-07-20T00:05:49.146Z,14.47
2018-07-20T00:06:49.064Z,14.42
2018-07-20T00:07:48.999Z,14.39
2018-07-20T00:08:48.918Z,14.50
2018-07-20T00:09:48.849Z,14.34
2018-07-20T00:10:48.769Z,14.34
2018-07-20T00:11:48.700Z,14.39
2018-07-20T00:12:48.624Z,14.29
2018-07-20T00:13:48.550Z,14.27
2018-07-20T00:14:48.468Z,14.17
2018-07-20T00:15:48.401Z,14.11
2018-07-20T00:16:48.375Z,14.09
2018-07-20T00:17:48.255Z,14.07
2018-07-20T00:18:48.167Z,14.07
2018-07-20T00:19:48.102Z,14.05
2018-07-20T00:20:48.017Z,13.99
2018-07-20T00:21:47.949Z,13.89
2018-07-20T00:22:47.867Z,14.02
2018-07-20T00:23:47.801Z,13.94
2018-07-20T00:24:47.719Z,13.84
2018-07-20T00:25:47.657Z,13.87
2018-07-20T00:26:47.570Z,13.94
2018-07-20T00:27:47.502Z,13.92
2018-07-20T00:28:47.419Z,14.05
2018-07-20T00:29:47.350Z,14.05
2018-07-20T00:30:47.269Z,13.99
2018-07-20T00:31:47.201Z,14.05
2018-07-20T00:32:47.118Z,13.96
2018-07-20T00:33:47.050Z,13.91
2018-07-20T00:34:46.968Z,13.76
2018-07-20T00:35:46.896Z,13.68
2018-07-20T00:36:46.818Z,13.66
2018-07-20T00:37:46.751Z,13.61
2018-07-20T00:38:46.668Z,13.71
2018-07-20T00:39:46.599Z,13.71
2018-07-20T00:40:46.513Z,13.71
2018-07-20T00:41:46.448Z,13.66
2018-07-20T00:42:46.368Z,13.76
2018-07-20T00:43:46.300Z,13.62
2018-07-20T00:44:46.218Z,13.66
2018-07-20T00:45:46.152Z,13.55
2018-07-20T00:46:46.063Z,13.63
2018-07-20T00:47:45.998Z,13.65
2018-07-20T00:48:45.916Z,13.73
2018-07-20T00:49:45.845Z,13.63
2018-07-20T00:50:45.768Z,13.65
2018-07-20T00:51:45.695Z,13.68
2018-07-20T00:52:45.616Z,13.65
2018-07-20T00:53:45.547Z,13.55
2018-07-20T00:54:45.465Z,13.59
2018-07-20T00:55:45.395Z,13.48
2018-07-20T00:56:45.314Z,13.48
2018-07-20T00:57:45.279Z,13.59
2018-07-20T00:58:45.163Z,13.61
2018-07-20T00:59:45.097Z,13.61
2018-07-20T01:00:45.014Z,13.62
2018-07-20T01:01:44.954Z,13.66
2018-07-20T01:02:44.862Z,13.58
2018-07-20T01:03:44.795Z,13.66
2018-07-20T01:04:44.714Z,13.62
2018-07-20T01:05:44.646Z,13.50
2018-07-20T01:06:44.563Z,13.53
2018-07-20T01:07:44.501Z,13.50
2018-07-20T01:08:44.410Z,13.45
2018-07-20T01:09:44.340Z,13.43
2018-07-20T01:10:44.259Z,13.38
2018-07-20T01:11:44.195Z,13.41
2018-07-20T01:12:44.112Z,13.48
2018-07-20T01:13:44.040Z,13.50
2018-07-20T01:14:43.959Z,13.48
2018-07-20T01:15:43.890Z,13.66
2018-07-20T01:16:43.808Z,13.71
2018-07-20T01:17:43.738Z,13.53
2018-07-20T01:18:43.652Z,13.71
2018-07-20T01:19:43.592Z,13.70
2018-07-20T01:20:43.505Z,13.70
2018-07-20T01:21:43.440Z,13.62
2018-07-20T01:22:43.350Z,13.61
2018-07-20T01:23:43.287Z,13.43
2018-07-20T01:24:43.203Z,13.36
2018-07-20T01:25:43.139Z,13.24
2018-07-20T01:26:43.049Z,13.11
2018-07-20T01:27:42.985Z,13.17
2018-07-20T01:28:42.903Z,13.15
2018-07-20T01:29:42.832Z,13.07
2018-07-20T01:30:42.752Z,12.99
2018-07-20T01:31:42.682Z,13.06
2018-07-20T01:32:42.600Z,13.06
2018-07-20T01:33:42.529Z,13.09
2018-07-20T01:34:42.448Z,13.10
2018-07-20T01:35:42.379Z,13.00
2018-07-20T01:36:42.294Z,12.99
2018-07-20T01:37:42.227Z,13.03
2018-07-20T01:38:42.145Z,13.00
2018-07-20T01:39:42.074Z,12.92
2018-07-20T01:40:41.998Z,12.92
2018-07-20T01:41:41.927Z,12.92
2018-07-20T01:42:41.849Z,12.96
2018-07-20T01:43:41.775Z,13.06
2018-07-20T01:44:41.694Z,13.06
2018-07-20T01:45:41.626Z,13.03
2018-07-20T01:46:41.539Z,13.02
2018-07-20T01:47:41.480Z,13.15
2018-07-20T01:48:41.393Z,13.17
2018-07-20T01:49:41.319Z,13.06
2018-07-20T01:50:41.237Z,13.14
2018-07-20T01:51:41.170Z,13.09
2018-07-20T01:52:41.085Z,13.17
2018-07-20T01:53:41.012Z,13.14
2018-07-20T01:54:40.935Z,13.09
2018-07-20T01:55:40.872Z,13.19
2018-07-20T01:56:40.786Z,13.22
2018-07-20T01:57:40.718Z,13.22
2018-07-20T01:58:40.631Z,13.33
2018-07-20T01:59:40.563Z,13.25
2018-07-20T02:00:40.481Z,13.15
2018-07-20T02:01:40.411Z,13.10
2018-07-20T02:02:40.330Z,13.04
2018-07-20T02:03:40.266Z,13.02
2018-07-20T02:04:40.177Z,12.88
2018-07-20T02:05:40.110Z,12.86
2018-07-20T02:06:40.027Z,12.78
2018-07-20T02:07:39.964Z,12.67
2018-07-20T02:08:39.874Z,12.69
2018-07-20T02:09:39.802Z,12.61
2018-07-20T02:10:39.721Z,12.60
2018-07-20T02:11:39.659Z,12.63
2018-07-20T02:12:39.570Z,12.69
2018-07-20T02:13:39.503Z,12.63
2018-07-20T02:14:39.417Z,12.59
2018-07-20T02:15:39.348Z,12.70
2018-07-20T02:16:39.272Z,12.63
2018-07-20T02:17:39.200Z,12.56
2018-07-20T02:18:39.117Z,12.55
2018-07-20T02:19:39.058Z,12.56
2018-07-20T02:20:38.964Z,12.55
2018-07-20T02:21:38.895Z,12.61
2018-07-20T02:22:38.813Z,12.61
2018-07-20T02:23:38.748Z,12.63
2018-07-20T02:24:38.677Z,12.55
2018-07-20T02:25:38.591Z,12.59
2018-07-20T02:26:38.507Z,12.59
2018-07-20T02:27:38.437Z,12.60
2018-07-20T02:28:38.354Z,12.56
2018-07-20T02:29:38.285Z,12.56
2018-07-20T02:30:38.203Z,12.63
2018-07-20T02:31:38.136Z,12.61
2018-07-20T02:32:38.049Z,12.59
2018-07-20T02:33:37.985Z,12.61
2018-07-20T02:34:37.899Z,12.67
2018-07-20T02:35:37.830Z,12.70
2018-07-20T02:36:37.748Z,12.59
2018-07-20T02:37:37.684Z,12.59
2018-07-20T02:38:37.595Z,12.45
2018-07-20T02:39:37.528Z,12.42
2018-07-20T02:40:37.444Z,12.42
2018-07-20T02:41:37.374Z,12.41
2018-07-20T02:42:37.294Z,12.41
2018-07-20T02:43:37.224Z,12.39
2018-07-20T02:44:37.140Z,12.39
2018-07-20T02:45:37.064Z,12.33
2018-07-20T02:46:36.986Z,12.44
2018-07-20T02:47:36.924Z,12.41
2018-07-20T02:48:36.842Z,12.48
2018-07-20T02:49:36.771Z,12.42
2018-07-20T02:50:36.686Z,12.42
2018-07-20T02:51:36.614Z,12.34
2018-07-20T02:52:36.527Z,12.37
2018-07-20T02:53:36.460Z,12.34
2018-07-20T02:54:36.374Z,12.31
2018-07-20T02:55:36.310Z,12.23
2018-07-20T02:56:36.232Z,12.26
2018-07-20T02:57:36.156Z,12.30
2018-07-20T02:58:36.074Z,12.33
2018-07-20T02:59:36.004Z,12.44
2018-07-20T03:00:35.922Z,12.30
2018-07-20T03:01:35.852Z,12.23
2018-07-20T03:02:35.768Z,12.23
2018-07-20T03:03:35.701Z,12.21
2018-07-20T03:04:35.614Z,12.06
2018-07-20T03:05:35.546Z,12.11
2018-07-20T03:06:35.466Z,12.08
2018-07-20T03:07:35.395Z,12.06
2018-07-20T03:08:35.333Z,12.06
2018-07-20T03:09:35.242Z,12.16
2018-07-20T03:10:35.158Z,12.15
2018-07-20T03:11:35.095Z,12.31
2018-07-20T03:12:35.006Z,12.41
2018-07-20T03:13:34.941Z,12.36
2018-07-20T03:14:34.861Z,12.45
2018-07-20T03:15:34.784Z,12.42
2018-07-20T03:16:34.702Z,12.44
2018-07-20T03:17:34.635Z,12.45
2018-07-20T03:18:34.550Z,12.44
2018-07-20T03:19:34.478Z,12.42
2018-07-20T03:20:34.397Z,12.26
2018-07-20T03:21:34.330Z,12.27
2018-07-20T03:22:34.245Z,12.28
2018-07-20T03:23:34.179Z,12.28
2018-07-20T03:24:34.091Z,12.23
2018-07-20T03:25:34.025Z,12.31
2018-07-20T03:26:33.939Z,12.31
2018-07-20T03:27:33.872Z,12.27
2018-07-20T03:28:33.789Z,12.19
2018-07-20T03:29:33.721Z,12.19
2018-07-20T03:30:33.632Z,12.11
2018-07-20T03:31:33.566Z,12.21
2018-07-20T03:32:33.555Z,12.16
2018-07-20T03:33:33.413Z,12.13
2018-07-20T03:34:33.331Z,12.19
2018-07-20T03:35:33.258Z,12.24
2018-07-20T03:36:33.174Z,12.19
2018-07-20T03:37:33.107Z,12.21
2018-07-20T03:38:33.020Z,12.13
2018-07-20T03:39:32.951Z,12.11
2018-07-20T03:40:32.870Z,12.03
2018-07-20T03:41:32.799Z,12.06
2018-07-20T03:42:32.719Z,12.08
2018-07-20T03:43:32.648Z,12.00
2018-07-20T03:44:32.564Z,11.98
2018-07-20T03:45:32.495Z,11.98
2018-07-20T03:46:32.408Z,11.97
2018-07-20T03:47:32.344Z,11.95
2018-07-20T03:48:32.264Z,12.03
2018-07-20T03:49:32.188Z,12.03
2018-07-20T03:50:32.106Z,12.05
2018-07-20T03:51:32.036Z,12.13
2018-07-20T03:52:31.953Z,12.21
2018-07-20T03:53:31.883Z,12.16
2018-07-20T03:54:31.798Z,12.30
2018-07-20T03:55:31.731Z,12.28
2018-07-20T03:56:31.648Z,12.24
2018-07-20T03:57:31.577Z,12.18
2018-07-20T03:58:31.495Z,12.21
2018-07-20T03:59:31.426Z,12.23
2018-07-20T04:00:31.340Z,12.16
2018-07-20T04:01:31.271Z,12.16
2018-07-20T04:02:31.256Z,12.23
2018-07-20T04:03:31.122Z,12.16
2018-07-20T04:04:31.037Z,12.16
2018-07-20T04:05:30.967Z,12.09
2018-07-20T04:06:30.883Z,12.06
2018-07-20T04:07:30.814Z,12.08
2018-07-20T04:08:30.736Z,12.09
2018-07-20T04:09:30.653Z,12.05
2018-07-20T04:10:30.587Z,12.06
2018-07-20T04:11:30.510Z,12.03
2018-07-20T04:12:30.435Z,12.11
2018-07-20T04:13:30.346Z,12.06
2018-07-20T04:14:30.279Z,12.09
2018-07-20T04:15:30.194Z,12.06
2018-07-20T04:16:30.126Z,12.02
2018-07-20T04:17:30.044Z,12.05
2018-07-20T04:18:29.989Z,12.09
2018-07-20T04:19:29.887Z,12.09
2018-07-20T04:20:29.818Z,12.09
2018-07-20T04:21:29.737Z,12.13
2018-07-20T04:22:29.670Z,12.09
2018-07-20T04:23:29.582Z,12.18
2018-07-20T04:24:29.519Z,12.15
2018-07-20T04:25:29.429Z,12.13
2018-07-20T04:26:29.358Z,12.30
2018-07-20T04:27:29.277Z,12.34
2018-07-20T04:28:29.207Z,12.27
2018-07-20T04:29:29.122Z,12.41
2018-07-20T04:30:29.049Z,12.49
2018-07-20T04:31:28.971Z,12.48
2018-07-20T04:32:28.899Z,12.48
2018-07-20T04:33:28.817Z,12.49
2018-07-20T04:34:28.747Z,12.53
2018-07-20T04:35:28.667Z,12.55
2018-07-20T04:36:28.652Z,12.55
2018-07-20T04:37:28.510Z,12.64
2018-07-20T04:38:28.445Z,12.61
2018-07-20T04:39:28.358Z,12.73
2018-07-20T04:40:28.294Z,12.78
2018-07-20T04:41:28.205Z,12.84
2018-07-20T04:42:28.135Z,12.89
2018-07-20T04:43:28.054Z,12.88
2018-07-20T04:44:27.983Z,12.89
2018-07-20T04:45:27.899Z,12.96
2018-07-20T04:46:27.830Z,12.91
2018-07-20T04:47:27.746Z,13.00
2018-07-20T04:48:27.677Z,13.00
2018-07-20T04:49:27.593Z,13.04
2018-07-20T04:50:27.531Z,12.99
2018-07-20T04:51:27.440Z,13.04
2018-07-20T04:52:27.372Z,13.00
2018-07-20T04:53:27.288Z,13.14
2018-07-20T04:54:27.230Z,13.09
2018-07-20T04:55:27.135Z,13.15
2018-07-20T04:56:27.068Z,13.29
2018-07-20T04:57:26.989Z,13.28
2018-07-20T04:58:26.914Z,13.32
2018-07-20T04:59:26.831Z,13.33
2018-07-20T05:00:26.759Z,13.40
2018-07-20T05:01:26.681Z,13.45
2018-07-20T05:02:26.608Z,13.48
2018-07-20T05:03:26.526Z,13.53
2018-07-20T05:04:26.456Z,13.48
2018-07-20T05:05:26.372Z,13.62
2018-07-20T05:06:26.304Z,13.66
2018-07-20T05:07:26.220Z,13.73
2018-07-20T05:08:26.151Z,13.74
2018-07-20T05:09:26.067Z,13.73
2018-07-20T05:10:26.000Z,13.77
2018-07-20T05:11:25.967Z,13.81
2018-07-20T05:12:25.850Z,13.83
2018-07-20T05:13:25.762Z,13.87
2018-07-20T05:14:25.693Z,13.87
2018-07-20T05:15:25.610Z,13.96
2018-07-20T05:16:25.541Z,13.98
2018-07-20T05:17:25.459Z,14.03
2018-07-20T05:18:25.389Z,14.01
2018-07-20T05:19:25.306Z,14.11
2018-07-20T05:20:25.243Z,14.05
2018-07-20T05:21:25.159Z,14.03
2018-07-20T05:22:25.085Z,14.16
2018-07-20T05:23:25.005Z,14.16
2018-07-20T05:24:24.936Z,14.19
2018-07-20T05:25:24.848Z,14.29
2018-07-20T05:26:24.782Z,14.32
2018-07-20T05:27:24.695Z,14.36
2018-07-20T05:28:24.631Z,14.38
2018-07-20T05:29:24.546Z,14.38
2018-07-20T05:30:24.479Z,14.38
2018-07-20T05:31:24.393Z,14.53
2018-07-20T05:32:24.321Z,14.53
2018-07-20T05:33:24.244Z,14.46
2018-07-20T05:34:24.173Z,14.59
2018-07-20T05:35:24.091Z,14.57
2018-07-20T05:36:24.022Z,14.65
2018-07-20T05:37:23.939Z,14.61
2018-07-20T05:38:23.873Z,14.60
2018-07-20T05:39:23.786Z,14.90
2018-07-20T05:40:23.722Z,14.80
2018-07-20T05:41:23.637Z,14.90
2018-07-20T05:42:23.565Z,14.93
2018-07-20T05:43:23.489Z,14.90
2018-07-20T05:44:23.416Z,15.02
2018-07-20T05:45:23.339Z,15.06
2018-07-20T05:46:23.263Z,15.15
2018-07-20T05:47:23.182Z,15.24
2018-07-20T05:48:23.119Z,15.16
2018-07-20T05:49:23.034Z,15.23
2018-07-20T05:50:22.962Z,15.27
2018-07-20T05:51:22.879Z,15.42
2018-07-20T05:52:22.815Z,15.43
2018-07-20T05:53:22.762Z,15.46
2018-07-20T05:54:22.660Z,15.55
2018-07-20T05:55:22.576Z,15.61
2018-07-20T05:56:22.509Z,15.63
2018-07-20T05:57:22.427Z,15.66
2018-07-20T05:58:22.362Z,15.76
2018-07-20T05:59:22.276Z,15.86
2018-07-20T06:00:22.208Z,15.83
2018-07-20T06:01:22.123Z,15.99
2018-07-20T06:02:22.055Z,16.03
2018-07-20T06:03:21.975Z,16.10
2018-07-20T06:04:21.914Z,16.20
2018-07-20T06:05:21.822Z,16.26
2018-07-20T06:06:21.753Z,16.33
2018-07-20T06:07:21.672Z,16.33
2018-07-20T06:08:21.608Z,16.45
2018-07-20T06:09:21.536Z,16.47
2018-07-20T06:10:21.456Z,16.53
2018-07-20T06:11:21.370Z,16.53
2018-07-20T06:12:21.305Z,16.62
2018-07-20T06:13:21.222Z,16.66
2018-07-20T06:14:21.156Z,16.82
2018-07-20T06:15:21.072Z,16.88
2018-07-20T06:16:21.006Z,16.98
2018-07-20T06:17:20.921Z,17.03
2018-07-20T06:18:20.855Z,17.18
2018-07-20T06:19:20.775Z,17.23
2018-07-20T06:20:20.705Z,17.44
2018-07-20T06:21:20.622Z,17.55
2018-07-20T06:22:20.559Z,17.67
2018-07-20T06:23:20.473Z,17.67
2018-07-20T06:24:20.409Z,17.79
2018-07-20T06:25:20.332Z,17.79
2018-07-20T06:26:20.257Z,17.94
2018-07-20T06:27:20.176Z,17.92
2018-07-20T06:28:20.109Z,18.10
2018-07-20T06:29:20.034Z,18.09
2018-07-20T06:30:19.958Z,18.22
2018-07-20T06:31:19.883Z,18.22
2018-07-20T06:32:19.814Z,18.37
2018-07-20T06:33:19.730Z,18.34
2018-07-20T06:34:19.660Z,18.39
2018-07-20T06:35:19.579Z,18.46
2018-07-20T06:36:19.517Z,18.46
2018-07-20T06:37:19.429Z,18.40
2018-07-20T06:38:19.364Z,18.55
2018-07-20T06:39:19.284Z,18.53
2018-07-20T06:40:19.217Z,18.68
2018-07-20T06:41:19.134Z,18.79
2018-07-20T06:42:19.065Z,18.82
2018-07-20T06:43:18.987Z,18.90
2018-07-20T06:44:18.916Z,18.99
2018-07-20T06:45:18.837Z,19.15
2018-07-20T06:46:18.770Z,19.25
2018-07-20T06:47:18.693Z,19.31
2018-07-20T06:48:18.622Z,19.32
2018-07-20T06:49:18.544Z,19.39
2018-07-20T06:50:18.474Z,19.46
2018-07-20T06:51:18.392Z,19.54
2018-07-20T06:52:18.328Z,19.50
2018-07-20T06:53:18.247Z,19.58
2018-07-20T06:54:18.181Z,19.65
2018-07-20T06:55:18.107Z,19.65
2018-07-20T06:56:18.032Z,19.76
2018-07-20T06:57:17.952Z,19.83
2018-07-20T06:58:17.882Z,19.94
2018-07-20T06:59:17.804Z,19.98
2018-07-20T07:00:17.740Z,20.09
2018-07-20T07:01:17.658Z,20.13
2018-07-20T07:02:17.590Z,20.10
2018-07-20T07:03:17.511Z,20.28
2018-07-20T07:04:17.451Z,20.28
2018-07-20T07:05:17.360Z,20.34
2018-07-20T07:06:17.297Z,20.46
2018-07-20T07:07:17.218Z,20.51
2018-07-20T07:08:17.158Z,20.51
2018-07-20T07:09:17.101Z,20.51
2018-07-20T07:10:17.008Z,20.47
2018-07-20T07:11:16.926Z,20.49
2018-07-20T07:12:16.855Z,20.56
2018-07-20T07:13:16.785Z,20.53
2018-07-20T07:14:16.710Z,20.66
2018-07-20T07:15:16.679Z,20.65
2018-07-20T07:16:16.573Z,20.68
2018-07-20T07:17:16.487Z,20.79
2018-07-20T07:18:16.423Z,20.74
2018-07-20T07:19:16.346Z,20.75
2018-07-20T07:20:16.281Z,20.79
2018-07-20T07:21:16.197Z,20.93
2018-07-20T07:22:16.195Z,20.99
2018-07-20T07:23:16.052Z,21.11
2018-07-20T07:24:15.988Z,21.05
2018-07-20T07:25:15.906Z,21.11
2018-07-20T07:26:15.846Z,21.23
2018-07-20T07:27:15.762Z,21.38
2018-07-20T07:28:15.700Z,21.35
2018-07-20T07:29:15.702Z,21.35
2018-07-20T07:30:15.551Z,21.53
2018-07-20T07:31:15.474Z,21.59
2018-07-20T07:32:15.408Z,21.70
2018-07-20T07:33:15.328Z,21.81
2018-07-20T07:34:15.263Z,22.00
2018-07-20T07:35:15.189Z,22.04
2018-07-20T07:36:15.121Z,22.17
2018-07-20T07:37:15.040Z,22.30
2018-07-20T07:38:14.976Z,22.46
2018-07-20T07:39:14.897Z,22.50
2018-07-20T07:40:14.842Z,22.49
2018-07-20T07:41:14.759Z,22.71
2018-07-20T07:42:14.802Z,22.71
2018-07-20T07:43:14.612Z,22.74
2018-07-20T07:44:14.549Z,22.86
2018-07-20T07:45:14.473Z,22.96
2018-07-20T07:46:14.403Z,22.99
2018-07-20T07:47:14.327Z,23.00
2018-07-20T07:48:14.265Z,23.08
2018-07-20T07:49:14.246Z,23.22
2018-07-20T07:50:14.122Z,23.24
2018-07-20T07:51:14.042Z,23.20
2018-07-20T07:52:13.978Z,23.20
2018-07-20T07:53:13.899Z,23.09
2018-07-20T07:54:13.836Z,23.12
2018-07-20T07:55:13.759Z,23.18
2018-07-20T07:56:13.696Z,23.18
2018-07-20T07:57:13.622Z,23.08
2018-07-20T07:58:13.646Z,23.15
2018-07-20T07:59:13.477Z,23.12
2018-07-20T08:00:13.458Z,23.18
2018-07-20T08:01:13.331Z,23.14
2018-07-20T08:02:13.270Z,23.11
2018-07-20T08:03:13.249Z,23.07
2018-07-20T08:04:13.176Z,23.12
2018-07-20T08:05:13.052Z,23.12
2018-07-20T08:06:13.081Z,23.14
2018-07-20T08:07:12.915Z,23.17
2018-07-20T08:08:12.902Z,23.20
2018-07-20T08:09:12.768Z,23.17
2018-07-20T08:10:12.815Z,23.09
2018-07-20T08:11:12.628Z,23.26
2018-07-20T08:12:12.614Z,23.23
2018-07-20T08:13:12.487Z,23.23
2018-07-20T08:14:12.524Z,23.35
2018-07-20T08:15:12.350Z,23.29
2018-07-20T08:16:12.333Z,23.38
2018-07-20T08:17:12.207Z,23.42
2018-07-20T08:18:12.244Z,23.46
2018-07-20T08:19:12.067Z,23.42
2018-07-20T08:20:12.052Z,23.46
2018-07-20T08:21:11.927Z,23.53
2018-07-20T08:22:11.966Z,23.52
2018-07-20T08:23:11.787Z,23.56
2018-07-20T08:24:11.775Z,23.58
2018-07-20T08:25:11.646Z,23.68
2018-07-20T08:26:11.684Z,23.90
2018-07-20T08:27:11.508Z,24.10
2018-07-20T08:28:11.490Z,24.11
2018-07-20T08:29:11.367Z,24.17
2018-07-20T08:30:11.409Z,24.26
2018-07-20T08:31:11.236Z,24.41
2018-07-20T08:32:11.212Z,24.47
2018-07-20T08:33:11.088Z,24.56
2018-07-20T08:34:11.124Z,24.66
2018-07-20T08:35:10.949Z,24.85
2018-07-20T08:36:10.934Z,24.93
2018-07-20T08:37:10.809Z,25.09
2018-07-20T08:38:10.843Z,25.15
2018-07-20T08:39:10.671Z,25.09
2018-07-20T08:40:10.652Z,25.23
2018-07-20T08:41:10.581Z,25.08
2018-07-20T08:42:10.568Z,25.13
2018-07-20T08:43:10.390Z,25.19
2018-07-20T08:44:10.371Z,25.28
2018-07-20T08:45:10.260Z,25.20
2018-07-20T08:46:10.286Z,25.34
2018-07-20T08:47:10.119Z,25.41
2018-07-20T08:48:10.092Z,25.60
2018-07-20T08:49:09.982Z,25.67
2018-07-20T08:50:10.003Z,25.83
2018-07-20T08:51:09.844Z,25.94
2018-07-20T08:52:09.782Z,25.97
2018-07-20T08:53:09.710Z,26.11
2018-07-20T08:54:09.762Z,26.12
2018-07-20T08:55:09.569Z,26.21
2018-07-20T08:56:09.531Z,26.32
2018-07-20T08:57:09.437Z,26.43
2018-07-20T08:58:09.442Z,26.35
2018-07-20T08:59:09.394Z,26.43
2018-07-20T09:00:09.253Z,26.53
2018-07-20T09:01:09.172Z,26.62
2018-07-20T09:02:09.163Z,26.79
2018-07-20T09:03:09.046Z,26.87
2018-07-20T09:04:09.075Z,26.87
2018-07-20T09:05:08.890Z,27.04
2018-07-20T09:06:08.882Z,27.01
2018-07-20T09:07:08.757Z,27.12
2018-07-20T09:08:08.794Z,27.12
2018-07-20T09:09:08.623Z,27.14
2018-07-20T09:10:10.654Z,27.21
2018-07-20T09:11:08.485Z,27.26
2018-07-20T09:12:08.516Z,27.31
2018-07-20T09:13:08.353Z,27.42
2018-07-20T09:14:08.293Z,27.57
2018-07-20T09:15:08.326Z,27.62
2018-07-20T09:16:08.155Z,27.65
2018-07-20T09:17:12.848Z,27.67
2018-07-20T09:18:08.021Z,27.50
2018-07-20T09:19:08.049Z,27.41
2018-07-20T09:20:07.889Z,27.39
2018-07-20T09:21:07.866Z,27.42
2018-07-20T09:22:07.756Z,27.53
2018-07-20T09:23:07.770Z,27.64
2018-07-20T09:24:07.624Z,27.70
2018-07-20T09:25:07.575Z,27.84
2018-07-20T09:26:07.496Z,27.77
2018-07-20T09:27:07.488Z,27.88
2018-07-20T09:28:07.355Z,27.98
2018-07-20T09:29:07.399Z,28.11
2018-07-20T09:30:07.223Z,28.16
2018-07-20T09:31:07.209Z,28.20
2018-07-20T09:32:07.091Z,28.20
2018-07-20T09:33:07.119Z,28.16
2018-07-20T09:34:06.966Z,28.14
2018-07-20T09:35:06.926Z,28.31
2018-07-20T09:36:06.828Z,28.44
2018-07-20T09:37:06.839Z,28.47
2018-07-20T09:38:06.694Z,28.50
2018-07-20T09:39:06.751Z,28.69
2018-07-20T09:40:06.570Z,28.76
2018-07-20T09:41:06.557Z,28.88
2018-07-20T09:42:06.429Z,29.00
2018-07-20T09:43:06.464Z,29.09
2018-07-20T09:44:06.300Z,29.22
2018-07-20T09:45:06.280Z,29.18
2018-07-20T09:46:06.170Z,29.26
2018-07-20T09:47:06.190Z,29.29
2018-07-20T09:48:06.047Z,29.34
2018-07-20T09:49:06.109Z,29.46
2018-07-20T09:50:05.907Z,29.47
2018-07-20T09:51:05.911Z,29.51
2018-07-20T09:52:05.782Z,29.50
2018-07-20T09:53:05.821Z,29.65
2018-07-20T09:54:05.648Z,29.55
2018-07-20T09:55:06.655Z,29.73
2018-07-20T09:56:05.511Z,29.69
2018-07-20T09:57:05.537Z,29.41
2018-07-20T09:58:05.429Z,29.47
2018-07-20T09:59:05.346Z,29.44
2018-07-20T10:00:05.258Z,29.26
2018-07-20T10:01:05.262Z,29.16
2018-07-20T10:02:05.130Z,29.09
2018-07-20T10:03:05.171Z,29.00
2018-07-20T10:04:05.728Z,29.03
2018-07-20T10:05:05.060Z,29.14
2018-07-20T10:06:04.869Z,29.28
2018-07-20T10:07:04.889Z,29.37
2018-07-20T10:08:04.738Z,29.37
2018-07-20T10:09:04.698Z,29.37
2018-07-20T10:10:04.608Z,29.31
2018-07-20T10:11:04.613Z,29.43
2018-07-20T10:12:04.477Z,29.48
2018-07-20T10:13:04.520Z,29.60
2018-07-20T10:14:04.350Z,29.81
2018-07-20T10:15:04.329Z,29.83
2018-07-20T10:16:04.221Z,30.00
2018-07-20T10:17:04.238Z,30.10
2018-07-20T10:18:04.096Z,30.14
2018-07-20T10:19:04.091Z,30.18
2018-07-20T10:20:03.963Z,30.22
2018-07-20T10:21:03.960Z,30.33
2018-07-20T10:22:03.833Z,30.49
2018-07-20T10:23:03.870Z,30.43
2018-07-20T10:24:03.708Z,30.48
2018-07-20T10:25:03.679Z,30.59
2018-07-20T10:26:03.587Z,30.60
2018-07-20T10:27:03.593Z,30.55
2018-07-20T10:28:03.448Z,30.70
2018-07-20T10:29:03.500Z,30.75
2018-07-20T10:30:03.321Z,30.78
2018-07-20T10:31:03.308Z,30.96
2018-07-20T10:32:03.193Z,31.07
2018-07-20T10:33:03.219Z,30.96
2018-07-20T10:34:03.066Z,30.89
2018-07-20T10:35:03.033Z,30.89
2018-07-20T10:36:02.938Z,30.90
2018-07-20T10:37:02.941Z,30.77
2018-07-20T10:38:02.806Z,30.97
2018-07-20T10:39:02.856Z,30.92
2018-07-20T10:40:02.692Z,30.94
2018-07-20T10:41:02.660Z,31.09
2018-07-20T10:42:02.554Z,31.14
2018-07-20T10:43:02.601Z,30.92
2018-07-20T10:44:02.430Z,30.68
2018-07-20T10:45:02.379Z,30.46
2018-07-20T10:46:02.300Z,30.37
2018-07-20T10:47:02.316Z,30.19
2018-07-20T10:48:02.169Z,30.36
2018-07-20T10:49:02.201Z,30.40
2018-07-20T10:50:02.045Z,30.55
2018-07-20T10:51:02.008Z,30.70
2018-07-20T10:52:01.951Z,30.87
2018-07-20T10:53:01.923Z,31.05
2018-07-20T10:54:01.800Z,31.21
2018-07-20T10:55:01.739Z,31.18
2018-07-20T10:56:01.675Z,30.96
2018-07-20T10:57:01.642Z,30.93
2018-07-20T10:58:01.539Z,31.04
2018-07-20T10:59:01.554Z,31.07
2018-07-20T11:00:01.418Z,31.07
2018-07-20T11:01:01.460Z,31.08
2018-07-20T11:02:01.287Z,31.05
2018-07-20T11:03:01.335Z,31.01
2018-07-20T11:04:01.164Z,30.92
2018-07-20T11:05:01.182Z,31.01
2018-07-20T11:06:01.052Z,30.87
2018-07-20T11:07:00.990Z,30.78
2018-07-20T11:08:00.915Z,30.89
2018-07-20T11:09:00.901Z,30.85
2018-07-20T11:10:00.779Z,30.87
2018-07-20T11:11:00.811Z,30.90
2018-07-20T11:12:00.656Z,30.77
2018-07-20T11:13:00.622Z,30.72
2018-07-20T11:14:00.530Z,30.48
2018-07-20T11:15:00.533Z,30.44
2018-07-20T11:16:00.406Z,30.36
2018-07-20T11:17:00.443Z,30.32
2018-07-20T11:18:00.278Z,30.18
2018-07-20T11:19:00.252Z,29.96
2018-07-20T11:20:00.152Z,30.00
2018-07-20T11:21:00.161Z,30.02
2018-07-20T11:22:00.028Z,30.21
2018-07-20T11:23:00.074Z,30.24
2018-07-20T11:23:59.900Z,30.44
2018-07-20T11:24:59.882Z,30.33
2018-07-20T11:25:59.772Z,30.21
2018-07-20T11:26:59.794Z,30.02
2018-07-20T11:27:59.675Z,29.95
2018-07-20T11:28:59.605Z,30.06
2018-07-20T11:29:59.521Z,30.11
2018-07-20T11:30:59.513Z,30.17
2018-07-20T11:31:59.397Z,30.19
2018-07-20T11:32:59.426Z,30.14
2018-07-20T11:33:59.268Z,30.12
2018-07-20T11:34:59.234Z,30.10
2018-07-20T11:35:59.143Z,30.24
2018-07-20T11:36:59.144Z,30.34
2018-07-20T11:37:59.017Z,30.46
2018-07-20T11:38:59.060Z,30.59
2018-07-20T11:39:58.892Z,30.77
2018-07-20T11:40:58.864Z,30.89
2018-07-20T11:41:58.767Z,30.75
2018-07-20T11:42:58.775Z,30.71
2018-07-20T11:43:58.642Z,30.83
2018-07-20T11:44:58.685Z,30.53
2018-07-20T11:45:58.514Z,30.37
2018-07-20T11:46:58.497Z,30.36
2018-07-20T11:47:58.390Z,30.33
2018-07-20T11:48:58.407Z,30.21
2018-07-20T11:49:58.266Z,30.24
2018-07-20T11:50:58.216Z,30.27
2018-07-20T11:51:58.138Z,30.29
2018-07-20T11:52:58.126Z,30.24
2018-07-20T11:53:58.009Z,30.12
2018-07-20T11:54:58.085Z,30.08
2018-07-20T11:55:57.906Z,29.99
2018-07-20T11:56:57.846Z,29.95
2018-07-20T11:57:57.757Z,29.97
2018-07-20T11:58:57.756Z,29.84
2018-07-20T11:59:57.631Z,29.78
2018-07-20T12:00:57.666Z,29.80
2018-07-20T12:01:57.600Z,29.73
2018-07-20T12:02:57.476Z,29.81
2018-07-20T12:03:57.380Z,29.60
2018-07-20T12:04:57.386Z,29.58
2018-07-20T12:05:57.286Z,29.48
2018-07-20T12:06:57.329Z,29.43
2018-07-20T12:07:57.127Z,29.37
2018-07-20T12:08:57.109Z,29.29
2018-07-20T12:09:57.001Z,29.26
2018-07-20T12:10:57.019Z,29.18
2018-07-20T12:11:56.872Z,29.21
2018-07-20T12:12:56.827Z,29.23
2018-07-20T12:13:56.743Z,29.18
2018-07-20T12:14:56.740Z,29.25
2018-07-20T12:15:56.620Z,29.29
2018-07-20T12:16:56.653Z,29.25
2018-07-20T12:17:56.493Z,29.37
2018-07-20T12:18:56.492Z,29.38
2018-07-20T12:19:56.468Z,29.48
2018-07-20T12:20:56.304Z,29.56
2018-07-20T12:21:56.273Z,29.60
2018-07-20T12:22:56.175Z,29.66
2018-07-20T12:23:56.184Z,29.71
2018-07-20T12:24:56.058Z,29.89
2018-07-20T12:25:56.096Z,29.81
2018-07-20T12:26:55.922Z,29.83
2018-07-20T12:27:55.903Z,29.62
2018-07-20T12:28:55.799Z,29.68
2018-07-20T12:29:55.814Z,29.66
2018-07-20T12:30:55.668Z,29.74
2018-07-20T12:31:55.624Z,29.84
2018-07-20T12:32:55.540Z,29.96
2018-07-20T12:33:55.547Z,30.00
2018-07-20T12:34:55.419Z,30.02
2018-07-20T12:35:55.446Z,30.10
2018-07-20T12:36:55.288Z,30.10
2018-07-20T12:37:55.254Z,30.11
2018-07-20T12:38:55.162Z,30.19
2018-07-20T12:39:55.165Z,30.22
2018-07-20T12:40:55.034Z,30.36
2018-07-20T12:41:55.076Z,30.40
2018-07-20T12:42:54.908Z,30.46
2018-07-20T12:43:54.923Z,30.64
2018-07-20T12:44:54.778Z,30.60
2018-07-20T12:45:54.794Z,30.52
2018-07-20T12:46:54.661Z,30.40
2018-07-20T12:47:54.707Z,30.36
2018-07-20T12:48:54.528Z,30.37
2018-07-20T12:49:54.514Z,30.52
2018-07-20T12:50:54.400Z,30.59
2018-07-20T12:51:54.427Z,30.53